Time;durP1;ratioP1;P1;durP2;ratioP2;P2;SDS_P1;SDS_P2;PMS_P1;PMS_P2;Temp;Humidity;BMP_temperature;BMP_pressure;BME280_temperature;BME280_humidity;BME280_pressure;Samples;Min_cycle;Max_cycle;Signal;HPM_P1;HPM_P2
2022/06/28 00:09:25;;;;;;;4.18;2.80;;;;;;;27.14;nan;100365.59;20805373;27;97545;-75
2022/06/28 00:19:26;;;;;;;7.13;3.30;;;;;;;27.05;nan;100370.03;20805499;27;99040;-75
2022/06/28 00:29:26;;;;;;;5.95;2.75;;;;;;;26.91;nan;100355.50;20816884;27;99348;-76
2022/06/28 00:39:27;;;;;;;4.30;3.08;;;;;;;26.90;nan;100366.28;20816258;27;98476;-77
2022/06/28 00:49:27;;;;;;;5.30;2.95;;;;;;;26.79;nan;100364.72;20800348;27;97081;-77
2022/06/28 00:59:28;;;;;;;3.93;2.90;;;;;;;26.92;nan;100369.63;20800600;27;97156;-76
2022/06/28 01:09:29;;;;;;;4.07;3.00;;;;;;;26.99;nan;100378.63;20826242;27;99802;-77
2022/06/28 01:19:30;;;;;;;6.25;2.75;;;;;;;26.84;nan;100387.19;20821782;27;97097;-76
2022/06/28 01:29:31;;;;;;;8.05;3.28;;;;;;;26.79;nan;100378.84;20830439;27;99842;-76
2022/06/28 01:39:31;;;;;;;5.47;2.87;;;;;;;26.63;nan;100368.91;20838389;27;101476;-76
2022/06/28 01:49:32;;;;;;;5.15;3.03;;;;;;;26.60;nan;100373.69;20790306;27;98307;-76
2022/06/28 01:59:33;;;;;;;10.60;3.15;;;;;;;26.53;nan;100369.00;20813501;27;97780;-76
2022/06/28 02:09:33;;;;;;;4.10;2.97;;;;;;;26.18;nan;100391.13;20784214;27;97399;-77
2022/06/28 02:19:34;;;;;;;5.15;3.20;;;;;;;26.18;nan;100404.38;20798435;27;97147;-77
2022/06/28 02:29:35;;;;;;;4.40;3.43;;;;;;;26.33;nan;100394.91;20805084;27;100429;-77
2022/06/28 02:49:55;;;;;;;4.47;3.50;;;;;;;25.89;nan;100400.09;20829141;27;97450;-79
2022/06/28 02:59:55;;;;;;;6.63;3.53;;;;;;;25.51;nan;100409.94;20810610;27;100461;-77
2022/06/28 03:09:55;;;;;;;10.20;3.50;;;;;;;26.17;nan;100397.41;20783226;27;99313;-76
2022/06/28 03:19:59;;;;;;;5.88;3.63;;;;;;;26.47;nan;100398.00;20862306;27;97333;-76
2022/06/28 03:29:59;;;;;;;5.63;3.25;;;;;;;26.66;nan;100412.94;20881839;27;96803;-76
2022/06/28 03:40:01;;;;;;;6.30;3.58;;;;;;;26.80;nan;100446.91;20879433;27;96864;-76
2022/06/28 03:50:01;;;;;;;10.85;3.33;;;;;;;26.91;nan;100492.84;20870317;27;96807;-76
2022/06/28 04:00:02;;;;;;;4.78;3.28;;;;;;;27.00;nan;100518.47;20890413;27;97084;-77
2022/06/28 04:10:03;;;;;;;6.88;3.15;;;;;;;27.05;nan;100508.22;20904029;27;96985;-76
2022/06/28 04:20:04;;;;;;;5.37;2.93;;;;;;;27.10;nan;100503.28;20880911;27;97780;-76
2022/06/28 04:30:05;;;;;;;5.85;3.13;;;;;;;27.16;nan;100505.31;20882579;27;96888;-76
2022/06/28 04:40:06;;;;;;;4.60;3.10;;;;;;;27.21;nan;100493.38;20900045;27;96972;-76
2022/06/28 04:50:06;;;;;;;3.70;2.90;;;;;;;27.25;nan;100505.38;20893614;27;96846;-76
2022/06/28 05:00:07;;;;;;;5.10;3.10;;;;;;;27.29;nan;100546.59;20875505;27;96978;-75
2022/06/28 05:10:08;;;;;;;2.63;2.40;;;;;;;27.33;nan;100578.03;20892702;27;96873;-75
2022/06/28 05:20:09;;;;;;;4.75;2.92;;;;;;;27.37;nan;100599.84;20881472;27;97151;-76
2022/06/28 05:30:11;;;;;;;2.67;2.47;;;;;;;27.38;nan;100624.59;20881865;27;96827;-76
2022/06/28 05:40:12;;;;;;;3.60;2.65;;;;;;;27.40;nan;100654.53;20888060;27;96689;-76
2022/06/28 05:50:12;;;;;;;2.70;2.42;;;;;;;27.41;nan;100656.25;20885056;27;97229;-76
2022/06/28 06:00:14;;;;;;;3.28;2.53;;;;;;;27.41;nan;100601.22;20878199;27;96915;-76
2022/06/28 06:10:15;;;;;;;5.38;2.53;;;;;;;27.41;nan;100497.50;20890930;27;96978;-76
2022/06/28 06:20:16;;;;;;;2.72;2.40;;;;;;;27.42;nan;100419.41;20898413;27;96934;-76
2022/06/28 06:30:16;;;;;;;2.40;2.20;;;;;;;27.42;nan;100480.56;20890304;27;97497;-76
2022/06/28 06:40:16;;;;;;;3.95;2.40;;;;;;;27.44;nan;100446.69;20882945;27;97190;-76
2022/06/28 06:50:17;;;;;;;3.05;2.40;;;;;;;27.44;nan;100494.56;20890017;27;97035;-76
2022/06/28 07:00:17;;;;;;;2.72;2.17;;;;;;;27.46;nan;100486.41;20877799;27;97215;-76
2022/06/28 07:10:18;;;;;;;3.07;2.20;;;;;;;27.46;nan;100467.78;20883620;27;96863;-76
2022/06/28 07:20:18;;;;;;;4.30;1.90;;;;;;;27.47;nan;100389.69;20881108;27;96817;-76
2022/06/28 07:30:19;;;;;;;2.53;2.10;;;;;;;27.48;nan;100421.44;20890417;27;96841;-77
2022/06/28 07:40:20;;;;;;;2.35;1.90;;;;;;;27.48;nan;100434.72;20894323;27;97093;-75
2022/06/28 08:00:39;;;;;;;2.22;2.03;;;;;;;27.50;nan;100493.06;20899023;27;96855;-76
2022/06/28 08:10:39;;;;;;;2.33;2.13;;;;;;;27.52;nan;100520.34;20890337;27;96911;-76
2022/06/28 08:20:41;;;;;;;2.30;2.10;;;;;;;27.53;nan;100523.84;20892531;27;96909;-76
2022/06/28 08:30:42;;;;;;;2.17;1.98;;;;;;;27.53;nan;100527.34;20900621;27;97188;-76
2022/06/28 08:40:44;;;;;;;2.13;2.00;;;;;;;27.53;nan;100529.16;20900777;27;96792;-76
2022/06/28 08:50:51;;;;;;;3.70;2.30;;;;;;;27.54;nan;100544.97;20892834;27;96766;-76
2022/06/28 09:00:51;;;;;;;3.50;2.45;;;;;;;27.55;nan;100551.97;20894510;27;97194;-76
2022/06/28 09:10:52;;;;;;;3.95;2.45;;;;;;;27.55;nan;100559.94;20887618;27;96820;-76
2022/06/28 09:20:56;;;;;;;2.20;2.00;;;;;;;27.56;nan;100566.94;20885378;27;96708;-76
2022/06/28 09:31:26;;;;;;;3.50;2.25;;;;;;;27.58;nan;100558.78;20869726;27;97528;-75
2022/06/28 09:41:28;;;;;;;3.53;1.77;;;;;;;27.60;nan;100562.09;20887415;27;97360;-76
2022/06/28 09:51:31;;;;;;;4.20;2.17;;;;;;;27.62;nan;100570.75;20883481;27;96815;-75
2022/06/28 10:01:32;;;;;;;2.55;2.08;;;;;;;27.63;nan;100575.09;20863585;27;100499;-76
2022/06/28 10:21:54;;;;;;;5.45;2.22;;;;;;;27.70;nan;100577.97;20883566;27;97462;-76
2022/06/28 10:31:54;;;;;;;3.57;2.10;;;;;;;27.74;nan;100566.84;20882920;27;96920;-76
2022/06/28 10:42:06;;;;;;;4.83;2.30;;;;;;;27.77;nan;100561.22;20864378;27;97023;-76
2022/06/28 10:52:14;;;;;;;2.20;2.00;;;;;;;27.80;nan;100549.41;20828780;27;96927;-75
2022/06/28 11:02:14;;;;;;;3.15;1.83;;;;;;;27.84;nan;100532.13;20858105;27;96949;-76
2022/06/28 11:12:19;;;;;;;;;;;;;;;27.88;nan;100527.31;20873393;27;97638;-75
2022/06/28 11:22:22;;;;;;;2.15;1.80;;;;;;;27.92;nan;100523.38;20874185;27;96867;-77
2022/06/28 11:32:32;;;;;;;2.22;1.95;;;;;;;27.96;nan;100503.41;20868253;27;96905;-77
2022/06/28 11:42:33;;;;;;;1.70;1.60;;;;;;;28.02;nan;100493.97;20877764;27;97307;-77
2022/06/28 11:52:34;;;;;;;1.80;1.70;;;;;;;28.09;nan;100473.72;20855265;27;97089;-76
2022/06/28 12:02:42;;;;;;;1.83;1.63;;;;;;;28.14;nan;100471.38;20876147;27;96844;-77
2022/06/28 12:12:43;;;;;;;2.22;1.80;;;;;;;28.19;nan;100450.44;20882410;27;97370;-77
2022/06/28 12:22:55;;;;;;;1.93;1.77;;;;;;;28.25;nan;100444.44;20872856;27;97366;-77
2022/06/28 12:32:56;;;;;;;2.28;1.73;;;;;;;28.31;nan;100439.44;20895615;27;97065;-76
2022/06/28 12:42:56;;;;;;;1.65;1.50;;;;;;;28.37;nan;100441.44;20888349;27;97488;-77
2022/06/28 12:52:57;;;;;;;1.40;1.30;;;;;;;28.41;nan;100424.97;20888152;27;97007;-77
2022/06/28 13:02:58;;;;;;;1.60;1.30;;;;;;;28.49;nan;100418.00;20875265;27;96852;-76
2022/06/28 13:12:58;;;;;;;1.63;1.52;;;;;;;28.53;nan;100403.34;20886953;27;96989;-77
2022/06/28 13:22:59;;;;;;;1.50;1.40;;;;;;;28.59;nan;100394.69;20883049;27;97203;-77
2022/06/28 13:32:59;;;;;;;1.33;1.23;;;;;;;28.65;nan;100385.19;20878029;27;96933;-77
2022/06/28 13:43:01;;;;;;;1.40;1.30;;;;;;;28.68;nan;100377.72;20866577;27;96749;-76
2022/06/28 13:53:02;;;;;;;1.40;1.30;;;;;;;28.73;nan;100378.06;20873812;27;96822;-76
2022/06/28 14:03:02;;;;;;;1.48;1.38;;;;;;;28.79;nan;100362.38;20882566;27;96822;-76
2022/06/28 14:13:04;;;;;;;1.42;1.20;;;;;;;28.81;nan;100350.56;20891324;27;96772;-77
2022/06/28 14:23:05;;;;;;;1.17;1.17;;;;;;;28.85;nan;100340.38;20875352;27;96745;-77
2022/06/28 14:33:05;;;;;;;1.25;1.15;;;;;;;28.90;nan;100314.03;20880970;27;96790;-77
2022/06/28 14:43:06;;;;;;;1.47;1.30;;;;;;;28.94;nan;100307.34;20883786;27;96802;-77
2022/06/28 14:53:11;;;;;;;1.42;1.33;;;;;;;28.97;nan;100314.19;20896558;27;97170;-76
2022/06/28 15:03:12;;;;;;;1.48;1.00;;;;;;;28.98;nan;100299.84;20858444;27;97149;-77
2022/06/28 15:13:14;;;;;;;1.10;1.10;;;;;;;29.00;nan;100295.19;20879223;27;96802;-76
2022/06/28 15:33:33;;;;;;;1.58;1.00;;;;;;;28.98;nan;100290.03;20875266;27;96958;-77
2022/06/28 15:43:34;;;;;;;1.00;1.00;;;;;;;28.97;nan;100288.38;20867386;27;97024;-77
2022/06/28 15:53:34;;;;;;;1.27;1.17;;;;;;;28.96;nan;100291.22;20870683;27;96885;-77
2022/06/28 16:03:34;;;;;;;0.93;0.90;;;;;;;28.94;nan;100283.38;20889328;27;96910;-77
2022/06/28 16:13:35;;;;;;;0.85;0.85;;;;;;;28.92;nan;100275.56;20893138;27;96796;-78
2022/06/28 16:23:37;;;;;;;1.23;1.13;;;;;;;28.91;nan;100263.22;20884752;27;97017;-76
2022/06/28 16:33:37;;;;;;;1.30;1.20;;;;;;;28.88;nan;100236.94;20884819;27;97104;-76
2022/06/28 16:43:37;;;;;;;1.17;1.08;;;;;;;28.88;nan;100236.09;20856545;27;97008;-76
2022/06/28 16:53:38;;;;;;;1.55;1.20;;;;;;;28.88;nan;100228.09;20869502;27;98028;-76
2022/06/28 17:03:38;;;;;;;0.85;0.85;;;;;;;28.86;nan;100230.94;20882441;27;96803;-76
2022/06/28 17:13:38;;;;;;;1.47;1.33;;;;;;;28.82;nan;100242.97;20878252;27;97272;-76
2022/06/28 17:23:39;;;;;;;1.55;1.20;;;;;;;28.80;nan;100265.47;20891495;27;96876;-76
2022/06/28 17:33:39;;;;;;;1.25;1.15;;;;;;;28.78;nan;100278.94;20878380;27;96919;-76
2022/06/28 17:43:40;;;;;;;1.45;1.10;;;;;;;28.74;nan;100285.63;20871897;27;96822;-76
2022/06/28 17:53:40;;;;;;;1.17;1.07;;;;;;;28.72;nan;100291.13;20886363;27;97474;-75
2022/06/28 18:03:41;;;;;;;1.27;1.17;;;;;;;28.71;nan;100320.59;20888910;27;96758;-76
2022/06/28 18:13:41;;;;;;;1.40;1.30;;;;;;;28.69;nan;100346.59;20882872;27;96891;-76
2022/06/28 18:23:42;;;;;;;1.50;1.40;;;;;;;28.65;nan;100351.41;20870616;27;97037;-76
2022/06/28 18:33:42;;;;;;;1.77;1.67;;;;;;;28.63;nan;100347.25;20882458;27;96699;-76
2022/06/28 18:43:43;;;;;;;2.00;1.90;;;;;;;28.63;nan;100348.06;20859623;27;96991;-77
2022/06/28 18:53:43;;;;;;;2.70;2.40;;;;;;;28.62;nan;100354.38;20868497;27;96912;-77
2022/06/28 19:03:43;;;;;;;2.90;2.60;;;;;;;28.63;nan;100373.88;20852530;27;96822;-75
2022/06/28 19:13:44;;;;;;;3.90;3.53;;;;;;;28.60;nan;100372.38;20865562;27;96867;-76
2022/06/28 19:23:44;;;;;;;4.53;4.13;;;;;;;28.59;nan;100381.38;20858173;27;96796;-77
2022/06/28 19:33:44;;;;;;;4.07;3.60;;;;;;;28.57;nan;100388.69;20870637;27;96728;-77
2022/06/28 19:43:45;;;;;;;5.17;3.87;;;;;;;28.54;nan;100381.03;20872671;27;96787;-76
2022/06/28 19:53:45;;;;;;;5.10;4.60;;;;;;;28.53;nan;100382.06;20875039;27;96824;-77
2022/06/28 20:03:46;;;;;;;5.30;4.80;;;;;;;28.53;nan;100385.53;20899546;27;97269;-76
2022/06/28 20:13:46;;;;;;;5.37;4.87;;;;;;;28.54;nan;100400.53;20863911;27;97334;-77
2022/06/28 20:23:47;;;;;;;6.43;5.20;;;;;;;28.54;nan;100383.69;20865142;27;97115;-77
2022/06/28 20:33:47;;;;;;;6.55;5.55;;;;;;;28.51;nan;100384.03;20874006;27;96931;-77
2022/06/28 20:43:48;;;;;;;5.88;5.38;;;;;;;28.49;nan;100378.88;20895074;27;97307;-76
2022/06/28 20:53:48;;;;;;;6.10;5.50;;;;;;;28.51;nan;100376.06;20899657;27;97282;-77
2022/06/28 21:03:48;;;;;;;5.90;5.38;;;;;;;28.49;nan;100370.06;20905548;27;96794;-77
2022/06/28 21:13:49;;;;;;;5.83;5.23;;;;;;;28.48;nan;100385.22;20889544;27;97131;-77
2022/06/28 21:23:50;;;;;;;6.20;5.37;;;;;;;28.46;nan;100373.06;20882867;27;97426;-76
2022/06/28 21:33:51;;;;;;;5.72;5.22;;;;;;;28.44;nan;100355.41;20880580;27;96934;-76
2022/06/28 21:43:51;;;;;;;6.23;5.30;;;;;;;28.45;nan;100345.59;20873088;27;96980;-75
2022/06/28 21:53:52;;;;;;;6.38;5.68;;;;;;;28.44;nan;100339.44;20855225;27;96886;-76
2022/06/28 22:03:52;;;;;;;5.70;5.18;;;;;;;28.46;nan;100349.09;20880593;27;96744;-76
2022/06/28 22:13:56;;;;;;;5.67;5.07;;;;;;;28.44;nan;100341.25;20874802;27;96858;-77
2022/06/28 22:23:58;;;;;;;5.38;4.88;;;;;;;28.43;nan;100342.28;20878227;27;99403;-76
2022/06/28 22:33:58;;;;;;;5.78;4.85;;;;;;;28.41;nan;100318.44;20884916;27;97268;-76
2022/06/28 22:43:59;;;;;;;5.20;4.70;;;;;;;28.39;nan;100307.16;20871968;27;97121;-76
2022/06/28 22:53:59;;;;;;;4.90;4.43;;;;;;;28.39;nan;100309.81;20866690;27;96821;-75
2022/06/28 23:04:00;;;;;;;5.73;4.70;;;;;;;28.40;nan;100294.66;20875410;27;96848;-76
2022/06/28 23:14:00;;;;;;;6.10;4.53;;;;;;;28.39;nan;100290.34;20850693;27;97704;-76
2022/06/28 23:24:00;;;;;;;4.93;4.50;;;;;;;28.38;nan;100270.03;20874391;27;97487;-75
2022/06/28 23:34:01;;;;;;;4.37;3.97;;;;;;;28.37;nan;100271.88;20862874;27;97780;-77
2022/06/28 23:44:01;;;;;;;4.50;4.10;;;;;;;28.38;nan;100278.88;20858879;27;97567;-75
